Time;durP1;ratioP1;P1;durP2;ratioP2;P2;SDS_P1;SDS_P2;PMS_P1;PMS_P2;Temp;Humidity;BMP_temperature;BMP_pressure;BME280_temperature;BME280_humidity;BME280_pressure;Samples;Min_cycle;Max_cycle;Signal;HPM_P1;HPM_P2
2024/03/12 00:01:29;;;;;;;1.70;0.70;;;;;;;;;;5093623;28;20355;-66
2024/03/12 00:03:54;;;;;;;4.00;0.82;;;;;;;;;;5092880;28;20027;-65
2024/03/12 00:06:21;;;;;;;3.13;1.08;;;;;;;;;;5092261;28;20103;-66
2024/03/12 00:08:48;;;;;;;1.65;0.80;;;;;;;;;;5093537;28;20022;-63
2024/03/12 00:11:13;;;;;;;2.20;0.82;;;;;;;;;;5091597;28;20439;-66
2024/03/12 00:13:39;;;;;;;2.00;0.80;;;;;;;;;;5090818;28;20031;-65
2024/03/12 00:16:05;;;;;;;2.22;0.80;;;;;;;;;;5091068;28;20479;-67
2024/03/12 00:18:32;;;;;;;1.33;0.77;;;;;;;;;;5092572;28;20041;-66
2024/03/12 00:20:58;;;;;;;2.45;0.70;;;;;;;;;;5094314;28;20062;-66
2024/03/12 00:23:25;;;;;;;2.13;0.90;;;;;;;;;;5092652;28;20125;-67
2024/03/12 00:25:50;;;;;;;3.13;1.10;;;;;;;;;;5092523;28;20012;-66
2024/03/12 00:28:16;;;;;;;1.60;0.90;;;;;;;;;;5096142;28;20020;-64
2024/03/12 00:30:41;;;;;;;2.03;0.80;;;;;;;;;;5112909;28;20024;-66
2024/03/12 00:33:07;;;;;;;2.03;0.90;;;;;;;;;;5110573;28;20042;-64
2024/03/12 00:35:35;;;;;;;1.20;0.70;;;;;;;;;;5112775;28;20413;-64
2024/03/12 00:38:04;;;;;;;1.63;0.90;;;;;;;;;;5111376;28;20612;-67
2024/03/12 00:40:36;;;;;;;2.10;1.05;;;;;;;;;;5112703;28;20020;-65
2024/03/12 00:43:03;;;;;;;1.27;0.70;;;;;;;;;;5113232;28;20100;-65
2024/03/12 00:45:36;;;;;;;1.40;0.90;;;;;;;;;;5112576;28;20098;-65
2024/03/12 00:48:02;;;;;;;1.73;1.17;;;;;;;;;;5106011;28;20032;-65
2024/03/12 00:50:27;;;;;;;1.35;0.80;;;;;;;;;;5092728;28;20070;-65
2024/03/12 00:52:53;;;;;;;1.65;1.10;;;;;;;;;;5091064;28;20079;-64
2024/03/12 00:55:20;;;;;;;2.08;0.85;;;;;;;;;;5092096;28;20059;-64
2024/03/12 00:57:50;;;;;;;1.77;0.90;;;;;;;;;;5093234;28;20016;-65
2024/03/12 01:00:25;;;;;;;3.38;0.88;;;;;;;;;;5092470;28;20024;-64
2024/03/12 01:02:53;;;;;;;1.73;0.90;;;;;;;;;;5094984;28;20036;-65
2024/03/12 01:05:26;;;;;;;2.30;1.08;;;;;;;;;;5104434;28;20062;-64
2024/03/12 01:07:58;;;;;;;0.88;0.75;;;;;;;;;;5093754;28;20067;-65
2024/03/12 01:10:26;;;;;;;2.22;0.90;;;;;;;;;;5092304;28;20395;-66
2024/03/12 01:12:52;;;;;;;1.70;0.80;;;;;;;;;;5091987;28;20036;-64
2024/03/12 01:15:18;;;;;;;2.38;0.90;;;;;;;;;;5092866;28;20078;-65
2024/03/12 01:17:50;;;;;;;2.60;1.08;;;;;;;;;;5092591;28;20024;-64
2024/03/12 01:20:20;;;;;;;1.58;0.80;;;;;;;;;;5091134;28;20031;-64
2024/03/12 01:22:47;;;;;;;1.88;0.88;;;;;;;;;;5093488;28;20020;-64
2024/03/12 01:25:12;;;;;;;1.25;0.90;;;;;;;;;;5092595;28;20063;-63
2024/03/12 01:27:38;;;;;;;0.88;0.70;;;;;;;;;;5091857;28;20062;-64
2024/03/12 01:30:06;;;;;;;1.73;0.85;;;;;;;;;;5100001;28;20284;-64
2024/03/12 01:32:33;;;;;;;4.40;0.90;;;;;;;;;;5115145;28;20323;-64
2024/03/12 01:34:58;;;;;;;2.13;0.93;;;;;;;;;;5117151;28;20034;-66
2024/03/12 01:37:24;;;;;;;2.20;1.05;;;;;;;;;;5103526;28;20429;-63
2024/03/12 01:39:52;;;;;;;3.17;0.73;;;;;;;;;;5095167;28;20077;-65
2024/03/12 01:42:21;;;;;;;1.17;0.80;;;;;;;;;;5095983;28;20206;-64
2024/03/12 01:44:47;;;;;;;1.80;0.85;;;;;;;;;;5096630;28;20030;-64
2024/03/12 01:47:13;;;;;;;2.65;1.00;;;;;;;;;;5096279;28;20165;-65
2024/03/12 01:49:38;;;;;;;1.70;0.77;;;;;;;;;;5095493;28;20547;-65
2024/03/12 01:52:04;;;;;;;1.10;0.70;;;;;;;;;;5096452;28;20112;-65
2024/03/12 01:54:32;;;;;;;1.48;0.77;;;;;;;;;;5096046;28;20044;-65
2024/03/12 01:56:57;;;;;;;0.90;0.80;;;;;;;;;;5107544;28;20022;-65
2024/03/12 01:59:23;;;;;;;2.72;1.00;;;;;;;;;;5114220;28;20334;-64
2024/03/12 02:01:56;;;;;;;1.88;1.02;;;;;;;;;;5105034;28;20063;-63
2024/03/12 02:04:22;;;;;;;3.72;0.98;;;;;;;;;;5097243;28;20032;-62
2024/03/12 02:06:47;;;;;;;3.25;1.20;;;;;;;;;;5095791;28;20342;-65
2024/03/12 02:09:12;;;;;;;1.52;0.70;;;;;;;;;;5094030;28;20064;-66
2024/03/12 02:11:40;;;;;;;1.52;0.80;;;;;;;;;;5095259;28;20077;-64
2024/03/12 02:14:07;;;;;;;2.95;1.10;;;;;;;;;;5095101;28;20032;-65
2024/03/12 02:16:33;;;;;;;4.03;1.00;;;;;;;;;;5095149;28;20088;-65
2024/03/12 02:19:18;;;;;;;1.73;1.10;;;;;;;;;;5110434;28;20110;-64
2024/03/12 02:21:44;;;;;;;3.03;1.48;;;;;;;;;;5114464;28;20118;-65
2024/03/12 02:24:09;;;;;;;1.63;0.90;;;;;;;;;;5115560;28;20016;-66
2024/03/12 02:26:35;;;;;;;2.28;1.17;;;;;;;;;;5115300;28;20016;-65
2024/03/12 02:29:00;;;;;;;3.25;1.10;;;;;;;;;;5115269;28;20061;-65
2024/03/12 02:31:25;;;;;;;2.63;1.20;;;;;;;;;;5115331;28;20039;-62
2024/03/12 02:33:52;;;;;;;4.65;1.70;;;;;;;;;;5115018;28;20134;-64
2024/03/12 02:36:20;;;;;;;1.63;1.20;;;;;;;;;;5115197;28;20027;-63
2024/03/12 02:38:46;;;;;;;1.77;1.00;;;;;;;;;;5102017;28;20331;-63
2024/03/12 02:41:11;;;;;;;2.65;1.20;;;;;;;;;;5095002;28;20082;-65
2024/03/12 02:43:36;;;;;;;2.22;1.02;;;;;;;;;;5094697;28;20024;-62
2024/03/12 02:46:02;;;;;;;1.58;1.08;;;;;;;;;;5094884;28;20527;-63
2024/03/12 02:48:29;;;;;;;2.33;1.10;;;;;;;;;;5094694;28;20031;-63
2024/03/12 02:50:55;;;;;;;2.50;1.17;;;;;;;;;;5094329;28;20107;-60
2024/03/12 02:53:20;;;;;;;1.80;1.15;;;;;;;;;;5095111;28;20138;-62
2024/03/12 02:55:46;;;;;;;1.92;1.10;;;;;;;;;;5095292;28;20020;-64
2024/03/12 02:58:12;;;;;;;2.35;1.38;;;;;;;;;;5094295;28;20020;-64
2024/03/12 03:00:37;;;;;;;2.65;1.13;;;;;;;;;;5094626;28;20016;-64
2024/03/12 03:03:03;;;;;;;5.57;1.20;;;;;;;;;;5094746;28;20031;-63
2024/03/12 03:05:28;;;;;;;2.30;1.38;;;;;;;;;;5094098;28;20111;-64
2024/03/12 03:07:54;;;;;;;3.60;1.38;;;;;;;;;;5094495;28;20418;-63
2024/03/12 03:10:20;;;;;;;3.53;1.13;;;;;;;;;;5097312;28;20030;-64
2024/03/12 03:12:45;;;;;;;1.95;1.10;;;;;;;;;;5114867;28;20024;-64
2024/03/12 03:15:13;;;;;;;4.40;1.30;;;;;;;;;;5114466;28;20411;-63
2024/03/12 03:17:40;;;;;;;3.22;1.30;;;;;;;;;;5096590;28;20035;-64
2024/03/12 03:20:06;;;;;;;1.92;1.10;;;;;;;;;;5094442;28;20119;-65
2024/03/12 03:22:31;;;;;;;4.25;1.40;;;;;;;;;;5094475;28;20024;-63
2024/03/12 03:24:57;;;;;;;1.88;1.00;;;;;;;;;;5093503;28;20031;-62
2024/03/12 03:27:22;;;;;;;1.95;1.20;;;;;;;;;;5094055;28;20327;-63
2024/03/12 03:29:48;;;;;;;4.72;1.30;;;;;;;;;;5094509;28;20028;-63
2024/03/12 03:32:13;;;;;;;1.85;1.20;;;;;;;;;;5094611;28;20366;-64
2024/03/12 03:34:39;;;;;;;3.75;1.35;;;;;;;;;;5093671;28;20434;-64
2024/03/12 03:37:04;;;;;;;2.33;1.38;;;;;;;;;;5103160;28;20020;-64
2024/03/12 03:39:31;;;;;;;3.05;1.60;;;;;;;;;;5114267;28;20389;-64
2024/03/12 03:41:57;;;;;;;2.33;1.33;;;;;;;;;;5114490;28;20020;-60
2024/03/12 03:44:23;;;;;;;2.13;1.20;;;;;;;;;;5114081;28;20350;-66
2024/03/12 03:46:48;;;;;;;3.45;1.67;;;;;;;;;;5111768;28;20143;-67
2024/03/12 03:49:14;;;;;;;5.30;1.88;;;;;;;;;;5112295;28;20038;-66
2024/03/12 03:51:40;;;;;;;2.67;1.65;;;;;;;;;;5113897;28;20042;-64
2024/03/12 03:54:07;;;;;;;3.30;1.90;;;;;;;;;;5113647;28;20055;-65
2024/03/12 03:56:33;;;;;;;3.85;1.80;;;;;;;;;;5102746;28;20031;-64
2024/03/12 03:59:00;;;;;;;12.15;2.42;;;;;;;;;;5093455;28;20467;-64
2024/03/12 04:01:28;;;;;;;6.25;1.85;;;;;;;;;;5107031;28;20438;-63
2024/03/12 04:03:53;;;;;;;8.20;2.05;;;;;;;;;;5095146;28;20110;-63
2024/03/12 04:06:22;;;;;;;2.13;1.42;;;;;;;;;;5094073;28;20107;-64
2024/03/12 04:08:49;;;;;;;3.28;1.60;;;;;;;;;;5092771;28;20061;-66
2024/03/12 04:11:15;;;;;;;3.67;1.55;;;;;;;;;;5092715;28;20032;-64
2024/03/12 04:13:41;;;;;;;5.65;2.22;;;;;;;;;;5092928;28;20036;-64
2024/03/12 04:16:06;;;;;;;2.60;1.77;;;;;;;;;;5092625;28;20414;-64
2024/03/12 04:18:33;;;;;;;3.08;1.80;;;;;;;;;;5093097;28;20028;-66
2024/03/12 04:20:58;;;;;;;5.13;1.77;;;;;;;;;;5092799;28;20066;-61
2024/03/12 04:23:24;;;;;;;4.80;1.60;;;;;;;;;;5092901;28;20051;-64
2024/03/12 04:25:49;;;;;;;4.00;2.15;;;;;;;;;;5092965;28;20028;-66
2024/03/12 04:28:16;;;;;;;7.72;2.40;;;;;;;;;;5092523;28;20016;-64
2024/03/12 04:30:42;;;;;;;4.07;2.28;;;;;;;;;;5092939;28;20441;-63
2024/03/12 04:33:07;;;;;;;5.05;2.70;;;;;;;;;;5093455;28;20030;-64
2024/03/12 04:35:33;;;;;;;6.75;2.85;;;;;;;;;;5094512;28;20028;-64
2024/03/12 04:37:59;;;;;;;5.00;2.20;;;;;;;;;;5113172;28;20363;-64
2024/03/12 04:40:25;;;;;;;4.40;2.17;;;;;;;;;;5113580;28;20031;-65
2024/03/12 04:42:53;;;;;;;4.97;2.58;;;;;;;;;;5112932;28;20027;-65
2024/03/12 04:45:20;;;;;;;2.75;1.77;;;;;;;;;;5112765;28;20104;-65
2024/03/12 04:47:46;;;;;;;3.30;1.88;;;;;;;;;;5113082;28;20027;-66
2024/03/12 04:50:14;;;;;;;5.18;1.85;;;;;;;;;;5111323;28;20091;-66
2024/03/12 04:52:40;;;;;;;3.78;1.90;;;;;;;;;;5072181;28;20048;-66
2024/03/12 04:55:06;;;;;;;2.38;1.75;;;;;;;;;;5072115;28;20457;-63
2024/03/12 04:57:31;;;;;;;2.78;1.52;;;;;;;;;;5112561;28;20103;-63
2024/03/12 04:59:56;;;;;;;4.85;1.98;;;;;;;;;;5112957;28;20028;-64
2024/03/12 05:02:22;;;;;;;6.10;2.10;;;;;;;;;;5111721;28;20354;-66
2024/03/12 05:04:48;;;;;;;6.05;1.90;;;;;;;;;;5111101;28;20112;-65
2024/03/12 05:07:13;;;;;;;4.07;1.55;;;;;;;;;;5113008;28;20028;-65
2024/03/12 05:09:39;;;;;;;3.55;2.22;;;;;;;;;;5112612;28;20513;-67
2024/03/12 05:12:04;;;;;;;7.35;1.80;;;;;;;;;;5112296;28;20019;-65
2024/03/12 05:14:30;;;;;;;1.80;1.50;;;;;;;;;;5112764;28;20050;-65
2024/03/12 05:16:56;;;;;;;4.20;2.00;;;;;;;;;;5096483;28;20024;-66
2024/03/12 05:19:24;;;;;;;4.50;2.00;;;;;;;;;;5092285;28;20361;-65
2024/03/12 05:21:49;;;;;;;6.85;2.03;;;;;;;;;;5091686;28;20132;-65
2024/03/12 05:24:17;;;;;;;4.78;2.13;;;;;;;;;;5090994;28;20115;-66
2024/03/12 05:26:44;;;;;;;5.80;1.77;;;;;;;;;;5092126;28;20028;-66
2024/03/12 05:29:10;;;;;;;4.65;2.00;;;;;;;;;;5092002;28;20016;-67
2024/03/12 05:31:38;;;;;;;5.20;2.35;;;;;;;;;;5091220;28;20364;-65
2024/03/12 05:34:13;;;;;;;8.77;3.20;;;;;;;;;;5092095;28;20461;-63
2024/03/12 05:36:47;;;;;;;7.03;2.72;;;;;;;;;;5107247;28;20133;-65
2024/03/12 05:50:19;;;;;;;16.63;6.80;;;;;;;;;;5110193;28;20018;-65
2024/03/12 05:52:48;;;;;;;8.80;5.13;;;;;;;;;;5111737;28;20074;-62
2024/03/12 05:55:15;;;;;;;9.65;4.15;;;;;;;;;;5108184;28;20024;-64
2024/03/12 05:57:41;;;;;;;8.82;3.80;;;;;;;;;;5091792;28;20065;-63
2024/03/12 06:00:07;;;;;;;8.60;3.13;;;;;;;;;;5090217;28;20065;-63
2024/03/12 06:02:33;;;;;;;9.07;4.65;;;;;;;;;;5091779;28;20028;-64
2024/03/12 06:04:58;;;;;;;8.27;3.80;;;;;;;;;;5092496;28;20024;-67
2024/03/12 06:07:24;;;;;;;6.82;3.50;;;;;;;;;;5091740;28;20054;-69
2024/03/12 06:09:51;;;;;;;5.38;2.55;;;;;;;;;;5091381;28;20043;-70
2024/03/12 06:12:18;;;;;;;7.55;2.45;;;;;;;;;;5091499;28;20081;-67
2024/03/12 06:14:43;;;;;;;7.60;2.50;;;;;;;;;;5092796;28;20040;-70
2024/03/12 06:17:09;;;;;;;6.93;2.80;;;;;;;;;;5114837;28;20349;-68
2024/03/12 06:19:34;;;;;;;6.60;2.63;;;;;;;;;;5115776;28;20039;-69
2024/03/12 06:21:59;;;;;;;7.05;2.70;;;;;;;;;;5115433;28;20028;-70
2024/03/12 06:24:25;;;;;;;7.45;3.17;;;;;;;;;;5115520;28;20096;-64
2024/03/12 06:26:51;;;;;;;9.25;3.25;;;;;;;;;;5115753;28;20113;-66
2024/03/12 06:29:17;;;;;;;7.18;3.53;;;;;;;;;;5115534;28;20051;-66
2024/03/12 06:31:43;;;;;;;5.75;3.03;;;;;;;;;;5100288;28;20020;-73
2024/03/12 06:34:08;;;;;;;4.93;2.72;;;;;;;;;;5097899;28;20034;-71
2024/03/12 06:36:33;;;;;;;7.38;2.80;;;;;;;;;;5095372;28;20386;-70
2024/03/12 06:39:00;;;;;;;4.93;2.53;;;;;;;;;;5094754;28;20377;-58
2024/03/12 06:41:26;;;;;;;6.57;3.05;;;;;;;;;;5094526;28;20077;-64
2024/03/12 06:43:52;;;;;;;7.10;3.17;;;;;;;;;;5095359;28;20028;-65
2024/03/12 06:46:19;;;;;;;6.13;3.08;;;;;;;;;;5094858;28;20030;-64
2024/03/12 06:48:45;;;;;;;5.25;2.58;;;;;;;;;;5094312;28;20120;-66
2024/03/12 06:51:11;;;;;;;4.53;2.30;;;;;;;;;;5094846;28;20021;-64
2024/03/12 06:53:37;;;;;;;7.20;2.55;;;;;;;;;;5095002;28;20062;-65
2024/03/12 06:56:05;;;;;;;8.75;2.80;;;;;;;;;;5094628;28;20072;-65
2024/03/12 06:58:31;;;;;;;5.13;3.13;;;;;;;;;;5104628;28;20042;-67
2024/03/12 07:00:57;;;;;;;19.13;4.28;;;;;;;;;;5115089;28;20031;-64
2024/03/12 07:03:24;;;;;;;9.43;3.00;;;;;;;;;;5115368;28;20107;-62
2024/03/12 07:05:50;;;;;;;8.77;2.92;;;;;;;;;;5114590;28;20393;-65
2024/03/12 07:08:17;;;;;;;8.60;2.88;;;;;;;;;;5114576;28;20089;-65
2024/03/12 07:10:43;;;;;;;8.15;2.95;;;;;;;;;;5114829;28;20403;-66
2024/03/12 07:13:09;;;;;;;6.10;2.70;;;;;;;;;;5107204;28;20024;-61
2024/03/12 07:15:38;;;;;;;7.13;2.83;;;;;;;;;;5094279;28;20071;-64
2024/03/12 07:18:05;;;;;;;9.88;3.72;;;;;;;;;;5094432;28;20098;-64
2024/03/12 07:20:31;;;;;;;10.88;3.08;;;;;;;;;;5094440;28;20035;-63
2024/03/12 07:22:59;;;;;;;5.68;2.85;;;;;;;;;;5108124;28;20415;-65
2024/03/12 07:25:25;;;;;;;7.93;3.17;;;;;;;;;;5112136;28;20019;-65
2024/03/12 07:27:53;;;;;;;9.15;3.65;;;;;;;;;;5114155;28;20012;-66
2024/03/12 07:30:18;;;;;;;7.63;2.78;;;;;;;;;;5114659;28;20457;-66
2024/03/12 07:32:46;;;;;;;7.65;2.40;;;;;;;;;;5113355;28;20019;-65
2024/03/12 07:35:12;;;;;;;6.40;2.72;;;;;;;;;;5114194;27;20052;-67
2024/03/12 07:37:40;;;;;;;7.25;2.75;;;;;;;;;;5114232;28;20051;-65
2024/03/12 07:40:09;;;;;;;5.00;2.30;;;;;;;;;;5114356;28;20102;-64
2024/03/12 07:42:35;;;;;;;7.53;3.35;;;;;;;;;;5114467;28;20027;-65
2024/03/12 07:45:01;;;;;;;5.07;2.67;;;;;;;;;;5113836;28;20030;-65
2024/03/12 07:47:26;;;;;;;19.63;3.20;;;;;;;;;;5113710;28;20016;-65
2024/03/12 07:49:53;;;;;;;9.02;2.25;;;;;;;;;;5099455;28;20486;-65
2024/03/12 07:52:19;;;;;;;4.53;2.50;;;;;;;;;;5093490;28;20431;-65
2024/03/12 07:54:45;;;;;;;10.23;2.58;;;;;;;;;;5093322;28;20042;-66
2024/03/12 07:57:11;;;;;;;6.68;2.60;;;;;;;;;;5093507;28;20024;-67
2024/03/12 07:59:36;;;;;;;9.18;2.75;;;;;;;;;;5093396;28;20092;-66
2024/03/12 08:02:11;;;;;;;4.47;2.90;;;;;;;;;;5092174;28;20028;-66
2024/03/12 08:04:36;;;;;;;5.57;2.53;;;;;;;;;;5096465;28;20169;-67
2024/03/12 08:07:01;;;;;;;6.18;2.58;;;;;;;;;;5097982;28;20099;-67
2024/03/12 08:09:27;;;;;;;7.57;2.63;;;;;;;;;;5093529;28;20028;-53
2024/03/12 08:11:52;;;;;;;3.72;2.60;;;;;;;;;;5095565;28;20023;-70
2024/03/12 08:14:18;;;;;;;5.85;2.15;;;;;;;;;;5089794;28;20046;-66
2024/03/12 08:16:43;;;;;;;6.97;2.75;;;;;;;;;;5092230;28;20024;-65
2024/03/12 08:19:12;;;;;;;10.75;3.10;;;;;;;;;;5092767;28;20367;-66
2024/03/12 08:21:41;;;;;;;8.02;2.55;;;;;;;;;;5093067;28;20024;-64
2024/03/12 08:24:07;;;;;;;9.20;2.50;;;;;;;;;;5092107;28;20534;-68
2024/03/12 08:26:33;;;;;;;7.13;2.80;;;;;;;;;;5092798;28;20077;-65
2024/03/12 08:28:58;;;;;;;6.68;2.53;;;;;;;;;;5092257;28;20016;-67
2024/03/12 08:31:24;;;;;;;6.55;2.70;;;;;;;;;;5093391;28;20023;-67
2024/03/12 08:33:50;;;;;;;6.95;3.30;;;;;;;;;;5092449;28;20071;-66
2024/03/12 08:36:16;;;;;;;4.80;2.72;;;;;;;;;;5090231;28;20028;-67
2024/03/12 08:38:41;;;;;;;6.97;2.65;;;;;;;;;;5091757;28;20400;-68
2024/03/12 08:41:09;;;;;;;8.63;2.30;;;;;;;;;;5092451;28;20085;-65
2024/03/12 08:43:36;;;;;;;4.75;2.10;;;;;;;;;;5092921;28;20080;-67
2024/03/12 08:46:03;;;;;;;15.82;3.10;;;;;;;;;;5092659;28;20424;-67
2024/03/12 08:48:28;;;;;;;6.57;2.13;;;;;;;;;;5092711;28;20012;-63
2024/03/12 08:50:53;;;;;;;4.82;1.90;;;;;;;;;;5093257;28;20073;-60
2024/03/12 08:53:19;;;;;;;2.45;1.42;;;;;;;;;;5091376;28;20044;-64
2024/03/12 08:55:45;;;;;;;3.97;1.80;;;;;;;;;;5092172;28;20093;-66
2024/03/12 08:58:10;;;;;;;5.07;2.20;;;;;;;;;;5094377;28;20023;-67
2024/03/12 09:00:37;;;;;;;5.43;1.85;;;;;;;;;;5092442;28;20496;-65
2024/03/12 09:03:04;;;;;;;5.50;2.10;;;;;;;;;;5092618;28;20031;-67
2024/03/12 09:05:30;;;;;;;4.75;2.33;;;;;;;;;;5095941;28;20024;-71
2024/03/12 09:07:55;;;;;;;7.43;2.42;;;;;;;;;;5091302;28;20027;-68
2024/03/12 09:10:21;;;;;;;5.43;2.30;;;;;;;;;;5090947;28;20035;-67
2024/03/12 09:12:46;;;;;;;5.00;2.17;;;;;;;;;;5088676;28;20155;-74
2024/03/12 09:15:12;;;;;;;4.63;2.55;;;;;;;;;;5092996;28;20356;-64
2024/03/12 09:17:38;;;;;;;5.75;1.83;;;;;;;;;;5083484;28;20029;-65
2024/03/12 09:20:10;;;;;;;3.20;1.60;;;;;;;;;;5086760;28;20093;-69
2024/03/12 09:22:38;;;;;;;3.03;1.67;;;;;;;;;;5084873;28;20450;-66
2024/03/12 09:25:05;;;;;;;6.28;1.88;;;;;;;;;;5100985;28;20023;-67
2024/03/12 09:27:30;;;;;;;2.60;2.00;;;;;;;;;;5097888;28;20179;-64
2024/03/12 09:29:56;;;;;;;8.45;2.03;;;;;;;;;;5094772;28;20438;-67
2024/03/12 09:32:22;;;;;;;5.18;1.83;;;;;;;;;;5109252;28;20023;-68
2024/03/12 09:34:47;;;;;;;2.97;1.50;;;;;;;;;;5094725;28;20122;-68
2024/03/12 09:37:15;;;;;;;2.67;1.48;;;;;;;;;;5104124;28;20494;-66
2024/03/12 09:39:41;;;;;;;3.78;1.48;;;;;;;;;;5101548;28;20099;-69
2024/03/12 09:42:07;;;;;;;2.25;1.35;;;;;;;;;;5098247;28;20102;-64
2024/03/12 09:44:35;;;;;;;2.45;1.50;;;;;;;;;;5105429;28;20390;-63
2024/03/12 09:47:02;;;;;;;6.78;1.75;;;;;;;;;;5105113;28;20142;-65
2024/03/12 09:49:29;;;;;;;3.33;1.50;;;;;;;;;;5094688;28;20027;-65
2024/03/12 09:51:55;;;;;;;1.95;1.50;;;;;;;;;;5094589;28;20075;-70
2024/03/12 09:54:21;;;;;;;4.45;1.40;;;;;;;;;;5105000;28;20143;-65
2024/03/12 09:56:47;;;;;;;4.05;1.85;;;;;;;;;;5094708;28;20033;-65
2024/03/12 09:59:13;;;;;;;8.20;1.45;;;;;;;;;;5106047;28;20035;-66
2024/03/12 10:01:39;;;;;;;6.82;1.80;;;;;;;;;;5094902;28;20038;-66
2024/03/12 10:04:04;;;;;;;4.03;1.70;;;;;;;;;;5094680;28;20524;-65
2024/03/12 10:06:30;;;;;;;5.15;1.80;;;;;;;;;;5094209;28;20035;-65
2024/03/12 10:08:59;;;;;;;5.53;1.73;;;;;;;;;;5095102;28;20024;-65
2024/03/12 10:11:25;;;;;;;3.40;1.75;;;;;;;;;;5095191;28;20031;-63
2024/03/12 10:13:57;;;;;;;2.42;1.67;;;;;;;;;;5108875;28;20495;-65
2024/03/12 10:16:27;;;;;;;1.70;1.20;;;;;;;;;;5094862;28;20023;-66
2024/03/12 10:19:06;;;;;;;3.97;1.88;;;;;;;;;;5095461;28;20027;-66
2024/03/12 10:21:33;;;;;;;2.40;1.63;;;;;;;;;;5095282;28;20020;-65
2024/03/12 10:24:13;;;;;;;3.20;1.42;;;;;;;;;;5095176;28;20123;-65
2024/03/12 10:26:39;;;;;;;4.35;2.35;;;;;;;;;;5094980;28;20089;-63
2024/03/12 10:29:18;;;;;;;3.50;1.80;;;;;;;;;;5102308;28;20027;-66
2024/03/12 10:31:48;;;;;;;3.03;1.33;;;;;;;;;;5094865;28;20036;-64
2024/03/12 10:34:19;;;;;;;2.20;1.55;;;;;;;;;;5093418;28;20036;-63
2024/03/12 10:36:46;;;;;;;4.25;1.75;;;;;;;;;;5102381;28;20027;-59
2024/03/12 10:39:12;;;;;;;1.98;1.27;;;;;;;;;;5114087;28;20047;-60
2024/03/12 10:41:43;;;;;;;1.88;1.38;;;;;;;;;;5114817;28;20043;-65
2024/03/12 10:44:12;;;;;;;3.70;1.30;;;;;;;;;;5115189;28;20028;-65
2024/03/12 10:46:39;;;;;;;2.28;1.10;;;;;;;;;;5094258;28;20111;-66
2024/03/12 10:49:10;;;;;;;5.53;1.60;;;;;;;;;;5074541;28;20354;-63
2024/03/12 10:51:39;;;;;;;2.95;1.70;;;;;;;;;;5074437;28;20115;-65
2024/03/12 10:54:05;;;;;;;2.28;1.42;;;;;;;;;;5080753;28;20043;-68
2024/03/12 10:56:31;;;;;;;2.15;1.48;;;;;;;;;;5093899;28;20032;-65
2024/03/12 10:58:57;;;;;;;2.80;1.60;;;;;;;;;;5093062;28;20027;-64
2024/03/12 11:01:23;;;;;;;3.05;1.50;;;;;;;;;;5094408;28;20028;-62
2024/03/12 11:03:55;;;;;;;2.25;1.40;;;;;;;;;;5094370;28;20078;-63
2024/03/12 11:06:21;;;;;;;1.77;1.30;;;;;;;;;;5093610;28;20016;-64
2024/03/12 11:08:48;;;;;;;2.90;1.42;;;;;;;;;;5111412;28;20027;-60
2024/03/12 11:11:13;;;;;;;2.58;1.30;;;;;;;;;;5114475;28;20460;-67
2024/03/12 11:13:40;;;;;;;6.00;1.40;;;;;;;;;;5114121;28;20126;-65
2024/03/12 11:16:10;;;;;;;2.15;1.23;;;;;;;;;;5100028;28;20051;-62
2024/03/12 11:18:35;;;;;;;3.33;1.35;;;;;;;;;;5094486;28;20024;-63
2024/03/12 11:21:04;;;;;;;2.08;1.42;;;;;;;;;;5094823;28;20055;-65
2024/03/12 11:23:32;;;;;;;2.97;1.33;;;;;;;;;;5094123;28;20379;-65
2024/03/12 11:26:02;;;;;;;2.10;1.30;;;;;;;;;;5093174;28;20355;-66
2024/03/12 11:28:28;;;;;;;1.55;1.27;;;;;;;;;;5093820;28;20603;-66
2024/03/12 11:30:56;;;;;;;3.50;1.50;;;;;;;;;;5092952;28;20019;-60
2024/03/12 11:33:40;;;;;;;4.28;1.30;;;;;;;;;;5093361;28;20040;-63
2024/03/12 11:36:09;;;;;;;1.75;1.15;;;;;;;;;;5093380;28;20067;-66
2024/03/12 11:38:34;;;;;;;3.78;1.50;;;;;;;;;;5093201;28;20062;-64
2024/03/12 11:41:02;;;;;;;3.40;1.30;;;;;;;;;;5093916;28;20051;-65
2024/03/12 11:43:37;;;;;;;8.68;1.58;;;;;;;;;;5093701;28;20055;-64
2024/03/12 11:46:07;;;;;;;4.70;1.60;;;;;;;;;;5093269;28;20068;-64
2024/03/12 11:48:33;;;;;;;5.35;1.48;;;;;;;;;;5093095;28;20127;-64
2024/03/12 11:50:59;;;;;;;4.03;1.55;;;;;;;;;;5094584;28;20032;-64
2024/03/12 11:53:29;;;;;;;3.08;1.58;;;;;;;;;;5113156;28;20722;-64
2024/03/12 11:56:10;;;;;;;2.78;1.45;;;;;;;;;;5113229;28;20035;-63
2024/03/12 11:58:44;;;;;;;4.53;1.52;;;;;;;;;;5113653;28;20027;-66
2024/03/12 12:01:10;;;;;;;9.57;1.73;;;;;;;;;;5103997;28;20031;-62
2024/03/12 12:03:39;;;;;;;4.15;1.70;;;;;;;;;;5092723;28;20066;-63
2024/03/12 12:06:06;;;;;;;4.60;1.75;;;;;;;;;;5110233;28;20024;-62
2024/03/12 12:08:32;;;;;;;3.00;1.58;;;;;;;;;;5113402;28;20042;-62
2024/03/12 12:10:58;;;;;;;4.80;1.75;;;;;;;;;;5112865;28;20031;-59
2024/03/12 12:13:23;;;;;;;3.88;1.83;;;;;;;;;;5111025;28;20107;-63
2024/03/12 12:15:56;;;;;;;1.67;1.20;;;;;;;;;;5104187;28;20107;-54
2024/03/12 12:18:21;;;;;;;2.35;1.60;;;;;;;;;;5091550;28;20016;-63
2024/03/12 12:20:47;;;;;;;2.67;1.50;;;;;;;;;;5092930;28;20347;-62
2024/03/12 12:23:13;;;;;;;4.80;2.00;;;;;;;;;;5092562;28;20103;-61
2024/03/12 12:25:38;;;;;;;4.40;1.83;;;;;;;;;;5096390;28;20024;-63
2024/03/12 12:28:07;;;;;;;4.78;1.83;;;;;;;;;;5093083;28;20031;-59
2024/03/12 12:30:35;;;;;;;4.07;1.90;;;;;;;;;;5092255;28;20036;-62
2024/03/12 12:33:01;;;;;;;2.17;1.67;;;;;;;;;;5092184;28;20024;-62
2024/03/12 12:35:28;;;;;;;3.67;1.80;;;;;;;;;;5092289;28;20024;-58
2024/03/12 12:37:53;;;;;;;2.75;1.77;;;;;;;;;;5092194;28;20020;-60
2024/03/12 12:40:20;;;;;;;3.67;2.08;;;;;;;;;;5091893;28;20108;-58
2024/03/12 12:42:50;;;;;;;2.60;1.92;;;;;;;;;;5092438;28;20059;-63
2024/03/12 12:45:15;;;;;;;3.88;1.65;;;;;;;;;;5091139;28;20184;-59
2024/03/12 12:47:45;;;;;;;2.67;1.58;;;;;;;;;;5106961;28;20019;-63
2024/03/12 12:50:11;;;;;;;1.92;1.70;;;;;;;;;;5111740;28;20023;-63
2024/03/12 12:52:38;;;;;;;4.38;2.00;;;;;;;;;;5111691;28;20059;-63
2024/03/12 12:55:09;;;;;;;4.78;1.70;;;;;;;;;;5112484;28;20354;-60
2024/03/12 12:57:40;;;;;;;4.90;1.73;;;;;;;;;;5112493;28;20020;-62
2024/03/12 13:00:17;;;;;;;3.17;1.90;;;;;;;;;;5111936;28;20110;-60
2024/03/12 13:02:46;;;;;;;3.13;1.70;;;;;;;;;;5091380;28;20024;-62
2024/03/12 13:05:18;;;;;;;3.58;1.38;;;;;;;;;;5091585;28;20028;-63
2024/03/12 13:07:44;;;;;;;5.60;1.77;;;;;;;;;;5092492;28;20464;-62
2024/03/12 13:10:14;;;;;;;4.65;1.60;;;;;;;;;;5091276;28;20024;-64
2024/03/12 13:12:40;;;;;;;6.85;1.90;;;;;;;;;;5090607;28;20024;-66
2024/03/12 13:15:05;;;;;;;3.25;2.00;;;;;;;;;;5091269;28;20461;-63
2024/03/12 13:17:31;;;;;;;3.10;1.80;;;;;;;;;;5091350;28;20028;-65
2024/03/12 13:19:56;;;;;;;3.10;1.77;;;;;;;;;;5091189;28;20107;-64
2024/03/12 13:22:22;;;;;;;2.75;1.80;;;;;;;;;;5091546;28;20166;-62
2024/03/12 13:24:48;;;;;;;3.08;1.85;;;;;;;;;;5096786;28;20027;-65
2024/03/12 13:27:13;;;;;;;2.90;1.67;;;;;;;;;;5116627;28;20020;-66
2024/03/12 13:29:42;;;;;;;3.78;1.45;;;;;;;;;;5116464;28;20104;-64
2024/03/12 13:32:07;;;;;;;6.15;1.92;;;;;;;;;;5102756;28;20028;-66
2024/03/12 13:34:35;;;;;;;1.95;1.50;;;;;;;;;;5095362;28;20028;-66
2024/03/12 13:37:01;;;;;;;2.78;1.80;;;;;;;;;;5095925;28;20028;-66
2024/03/12 13:39:27;;;;;;;2.22;1.77;;;;;;;;;;5095285;28;20062;-67
2024/03/12 13:41:52;;;;;;;2.50;1.73;;;;;;;;;;5095126;28;20036;-63
2024/03/12 13:47:02;;;;;;;2.42;1.65;;;;;;;;;;5103244;28;20104;-65
2024/03/12 13:49:28;;;;;;;3.13;1.50;;;;;;;;;;5075330;28;20031;-67
2024/03/12 13:51:54;;;;;;;5.55;1.98;;;;;;;;;;5074992;28;20052;-66
2024/03/12 13:54:19;;;;;;;5.20;2.03;;;;;;;;;;5089775;28;20040;-66
2024/03/12 13:56:45;;;;;;;5.32;1.92;;;;;;;;;;5095388;28;20107;-67
2024/03/12 13:59:12;;;;;;;3.83;1.90;;;;;;;;;;5098563;28;20041;-67
2024/03/12 14:01:38;;;;;;;4.97;1.92;;;;;;;;;;5090644;28;20016;-64
2024/03/12 14:04:04;;;;;;;5.53;2.03;;;;;;;;;;5079991;28;20027;-63
2024/03/12 14:06:32;;;;;;;3.97;2.38;;;;;;;;;;5087353;28;20020;-64
2024/03/12 14:08:57;;;;;;;3.22;1.60;;;;;;;;;;5088830;28;20024;-62
2024/03/12 14:11:25;;;;;;;5.68;2.20;;;;;;;;;;5078903;28;20028;-64
2024/03/12 14:13:50;;;;;;;4.95;2.17;;;;;;;;;;5082189;28;20118;-64
2024/03/12 14:16:15;;;;;;;6.85;2.50;;;;;;;;;;5115718;28;20111;-62
2024/03/12 14:18:43;;;;;;;5.53;2.10;;;;;;;;;;5095710;28;20046;-64
2024/03/12 14:21:09;;;;;;;4.13;2.38;;;;;;;;;;5094570;28;20031;-64
2024/03/12 14:23:35;;;;;;;4.88;2.50;;;;;;;;;;5094957;28;20585;-63
2024/03/12 14:26:00;;;;;;;4.35;2.17;;;;;;;;;;5108186;28;20054;-65
2024/03/12 14:28:26;;;;;;;3.05;2.08;;;;;;;;;;5114968;28;20468;-59
2024/03/12 14:30:54;;;;;;;6.53;2.35;;;;;;;;;;5104232;28;20174;-66
2024/03/12 14:33:19;;;;;;;3.25;1.90;;;;;;;;;;5094989;28;20122;-68
2024/03/12 14:35:44;;;;;;;2.20;1.58;;;;;;;;;;5097968;28;20137;-63
2024/03/12 14:38:11;;;;;;;3.47;2.00;;;;;;;;;;5109224;28;20024;-64
2024/03/12 14:40:37;;;;;;;3.10;1.90;;;;;;;;;;5094151;28;20028;-63
2024/03/12 14:43:03;;;;;;;8.05;2.38;;;;;;;;;;5093855;28;20020;-63
2024/03/12 14:45:29;;;;;;;5.25;2.28;;;;;;;;;;5095094;28;20435;-64
2024/03/12 14:47:56;;;;;;;4.68;2.22;;;;;;;;;;5094610;28;20016;-64
2024/03/12 14:50:22;;;;;;;5.93;2.15;;;;;;;;;;5095359;28;20028;-56
2024/03/12 14:52:47;;;;;;;5.68;2.25;;;;;;;;;;5095626;28;20473;-63
2024/03/12 14:55:13;;;;;;;4.47;2.40;;;;;;;;;;5094846;28;20040;-64